sensor_id;sensor_type;location;lat;lon;timestamp;P1;durP1;ratioP1;P2;durP2;ratioP2
20739;SDS011;10530;49.968;19.844;2022-11-13T00:02:20;35.73;;;11.73;;
20739;SDS011;10530;49.968;19.844;2022-11-13T00:07:41;33.95;;;10.35;;
20739;SDS011;10530;49.968;19.844;2022-11-13T00:13:02;34.92;;;10.93;;
20739;SDS011;10530;49.968;19.844;2022-11-13T00:18:24;29.60;;;9.60;;
20739;SDS011;10530;49.968;19.844;2022-11-13T00:23:45;36.97;;;10.32;;
20739;SDS011;10530;49.968;19.844;2022-11-13T00:29:07;42.07;;;11.93;;
20739;SDS011;10530;49.968;19.844;2022-11-13T00:34:28;38.08;;;11.38;;
20739;SDS011;10530;49.968;19.844;2022-11-13T00:40:07;39.25;;;11.80;;
20739;SDS011;10530;49.968;19.844;2022-11-13T00:45:29;35.10;;;10.73;;
20739;SDS011;10530;49.968;19.844;2022-11-13T00:50:50;35.10;;;10.40;;
20739;SDS011;10530;49.968;19.844;2022-11-13T00:56:11;29.27;;;9.27;;
20739;SDS011;10530;49.968;19.844;2022-11-13T01:01:32;40.55;;;11.50;;
20739;SDS011;10530;49.968;19.844;2022-11-13T01:06:54;39.58;;;10.73;;
20739;SDS011;10530;49.968;19.844;2022-11-13T01:12:16;43.70;;;11.17;;
20739;SDS011;10530;49.968;19.844;2022-11-13T01:17:37;38.53;;;11.30;;
20739;SDS011;10530;49.968;19.844;2022-11-13T01:22:58;42.00;;;11.43;;
20739;SDS011;10530;49.968;19.844;2022-11-13T01:28:19;47.35;;;12.05;;
20739;SDS011;10530;49.968;19.844;2022-11-13T01:33:41;37.60;;;10.48;;
20739;SDS011;10530;49.968;19.844;2022-11-13T01:39:03;46.03;;;11.07;;
20739;SDS011;10530;49.968;19.844;2022-11-13T01:44:25;37.38;;;10.32;;
20739;SDS011;10530;49.968;19.844;2022-11-13T01:50:08;38.80;;;10.30;;
20739;SDS011;10530;49.968;19.844;2022-11-13T01:55:34;28.38;;;9.63;;
20739;SDS011;10530;49.968;19.844;2022-11-13T02:00:56;33.10;;;9.50;;
20739;SDS011;10530;49.968;19.844;2022-11-13T02:06:18;39.13;;;10.40;;
20739;SDS011;10530;49.968;19.844;2022-11-13T02:11:41;36.72;;;11.18;;
20739;SDS011;10530;49.968;19.844;2022-11-13T02:17:03;36.23;;;9.50;;
20739;SDS011;10530;49.968;19.844;2022-11-13T02:22:35;37.55;;;10.15;;
20739;SDS011;10530;49.968;19.844;2022-11-13T02:28:11;34.55;;;11.10;;
20739;SDS011;10530;49.968;19.844;2022-11-13T02:33:32;30.30;;;9.43;;
20739;SDS011;10530;49.968;19.844;2022-11-13T02:38:54;34.38;;;10.23;;
20739;SDS011;10530;49.968;19.844;2022-11-13T02:44:18;31.80;;;8.70;;
20739;SDS011;10530;49.968;19.844;2022-11-13T02:49:39;33.53;;;8.77;;
20739;SDS011;10530;49.968;19.844;2022-11-13T02:55:00;27.63;;;8.75;;
20739;SDS011;10530;49.968;19.844;2022-11-13T03:00:22;31.20;;;9.70;;
20739;SDS011;10530;49.968;19.844;2022-11-13T03:05:46;34.55;;;10.07;;
20739;SDS011;10530;49.968;19.844;2022-11-13T03:11:09;34.47;;;9.10;;
20739;SDS011;10530;49.968;19.844;2022-11-13T03:16:31;42.85;;;9.70;;
20739;SDS011;10530;49.968;19.844;2022-11-13T03:21:54;28.65;;;8.63;;
20739;SDS011;10530;49.968;19.844;2022-11-13T03:27:15;28.10;;;8.57;;
20739;SDS011;10530;49.968;19.844;2022-11-13T03:32:36;32.28;;;9.20;;
20739;SDS011;10530;49.968;19.844;2022-11-13T03:37:57;30.37;;;8.53;;
20739;SDS011;10530;49.968;19.844;2022-11-13T03:43:18;30.15;;;9.05;;
20739;SDS011;10530;49.968;19.844;2022-11-13T03:48:39;27.48;;;7.55;;
20739;SDS011;10530;49.968;19.844;2022-11-13T03:54:01;32.17;;;8.33;;
20739;SDS011;10530;49.968;19.844;2022-11-13T03:59:22;26.52;;;8.02;;
20739;SDS011;10530;49.968;19.844;2022-11-13T04:04:43;32.63;;;8.80;;
20739;SDS011;10530;49.968;19.844;2022-11-13T04:10:05;32.53;;;9.05;;
20739;SDS011;10530;49.968;19.844;2022-11-13T04:15:26;22.77;;;6.70;;
20739;SDS011;10530;49.968;19.844;2022-11-13T04:20:47;25.73;;;7.80;;
20739;SDS011;10530;49.968;19.844;2022-11-13T04:26:09;21.88;;;7.30;;
20739;SDS011;10530;49.968;19.844;2022-11-13T04:31:30;23.30;;;6.90;;
20739;SDS011;10530;49.968;19.844;2022-11-13T04:36:51;22.52;;;6.60;;
20739;SDS011;10530;49.968;19.844;2022-11-13T04:42:13;20.63;;;7.30;;
20739;SDS011;10530;49.968;19.844;2022-11-13T04:47:52;28.30;;;8.43;;
20739;SDS011;10530;49.968;19.844;2022-11-13T04:53:14;34.72;;;8.70;;
20739;SDS011;10530;49.968;19.844;2022-11-13T04:58:36;24.07;;;7.10;;
20739;SDS011;10530;49.968;19.844;2022-11-13T05:03:57;27.48;;;6.57;;
20739;SDS011;10530;49.968;19.844;2022-11-13T05:09:18;29.08;;;7.07;;
20739;SDS011;10530;49.968;19.844;2022-11-13T05:14:39;23.43;;;5.33;;
20739;SDS011;10530;49.968;19.844;2022-11-13T05:20:00;24.58;;;7.13;;
20739;SDS011;10530;49.968;19.844;2022-11-13T05:25:22;29.40;;;7.40;;
20739;SDS011;10530;49.968;19.844;2022-11-13T05:30:43;20.38;;;6.97;;
20739;SDS011;10530;49.968;19.844;2022-11-13T05:36:05;18.35;;;6.38;;
20739;SDS011;10530;49.968;19.844;2022-11-13T05:41:28;23.50;;;6.83;;
20739;SDS011;10530;49.968;19.844;2022-11-13T05:46:50;19.67;;;6.78;;
20739;SDS011;10530;49.968;19.844;2022-11-13T05:52:11;25.63;;;6.43;;
20739;SDS011;10530;49.968;19.844;2022-11-13T05:57:33;19.58;;;5.78;;
20739;SDS011;10530;49.968;19.844;2022-11-13T06:02:54;17.60;;;6.07;;
20739;SDS011;10530;49.968;19.844;2022-11-13T06:08:15;19.50;;;6.77;;
20739;SDS011;10530;49.968;19.844;2022-11-13T06:13:36;20.55;;;6.70;;
20739;SDS011;10530;49.968;19.844;2022-11-13T06:18:59;23.27;;;7.27;;
20739;SDS011;10530;49.968;19.844;2022-11-13T06:24:21;20.23;;;7.13;;
20739;SDS011;10530;49.968;19.844;2022-11-13T06:29:42;29.92;;;8.55;;
20739;SDS011;10530;49.968;19.844;2022-11-13T06:35:04;21.00;;;7.33;;
20739;SDS011;10530;49.968;19.844;2022-11-13T06:40:25;29.08;;;7.68;;
20739;SDS011;10530;49.968;19.844;2022-11-13T06:45:46;28.23;;;7.77;;
20739;SDS011;10530;49.968;19.844;2022-11-13T06:51:08;29.85;;;7.78;;
20739;SDS011;10530;49.968;19.844;2022-11-13T06:56:33;17.05;;;5.43;;
20739;SDS011;10530;49.968;19.844;2022-11-13T07:01:55;11.60;;;5.07;;
20739;SDS011;10530;49.968;19.844;2022-11-13T07:07:16;19.45;;;7.82;;
20739;SDS011;10530;49.968;19.844;2022-11-13T07:12:37;23.30;;;7.93;;
20739;SDS011;10530;49.968;19.844;2022-11-13T07:18:02;22.48;;;8.55;;
20739;SDS011;10530;49.968;19.844;2022-11-13T07:23:24;20.35;;;6.47;;
20739;SDS011;10530;49.968;19.844;2022-11-13T07:28:45;19.07;;;6.50;;
20739;SDS011;10530;49.968;19.844;2022-11-13T07:34:07;21.58;;;6.85;;
20739;SDS011;10530;49.968;19.844;2022-11-13T07:39:29;23.77;;;7.43;;
20739;SDS011;10530;49.968;19.844;2022-11-13T07:44:50;25.05;;;7.07;;
20739;SDS011;10530;49.968;19.844;2022-11-13T07:50:15;27.65;;;6.80;;
20739;SDS011;10530;49.968;19.844;2022-11-13T07:55:36;25.60;;;8.37;;
20739;SDS011;10530;49.968;19.844;2022-11-13T08:01:01;21.13;;;7.53;;
20739;SDS011;10530;49.968;19.844;2022-11-13T08:06:23;20.83;;;7.13;;
20739;SDS011;10530;49.968;19.844;2022-11-13T08:11:47;18.52;;;7.05;;
20739;SDS011;10530;49.968;19.844;2022-11-13T08:17:08;16.17;;;6.25;;
20739;SDS011;10530;49.968;19.844;2022-11-13T08:22:29;17.20;;;7.17;;
20739;SDS011;10530;49.968;19.844;2022-11-13T08:27:51;24.98;;;8.00;;
20739;SDS011;10530;49.968;19.844;2022-11-13T08:33:13;22.83;;;7.70;;
20739;SDS011;10530;49.968;19.844;2022-11-13T08:38:35;16.48;;;6.50;;
20739;SDS011;10530;49.968;19.844;2022-11-13T08:43:57;18.08;;;7.10;;
20739;SDS011;10530;49.968;19.844;2022-11-13T08:49:18;22.40;;;7.97;;
20739;SDS011;10530;49.968;19.844;2022-11-13T08:54:39;11.38;;;5.53;;
20739;SDS011;10530;49.968;19.844;2022-11-13T09:00:01;21.97;;;7.83;;
20739;SDS011;10530;49.968;19.844;2022-11-13T09:05:22;17.70;;;6.88;;
20739;SDS011;10530;49.968;19.844;2022-11-13T09:10:44;21.05;;;7.95;;
20739;SDS011;10530;49.968;19.844;2022-11-13T09:16:05;24.50;;;8.37;;
20739;SDS011;10530;49.968;19.844;2022-11-13T09:21:27;26.60;;;11.45;;
20739;SDS011;10530;49.968;19.844;2022-11-13T09:26:48;22.60;;;8.37;;
20739;SDS011;10530;49.968;19.844;2022-11-13T09:32:09;23.05;;;8.32;;
20739;SDS011;10530;49.968;19.844;2022-11-13T09:37:30;19.10;;;7.47;;
20739;SDS011;10530;49.968;19.844;2022-11-13T09:42:52;21.03;;;7.83;;
20739;SDS011;10530;49.968;19.844;2022-11-13T09:48:22;24.85;;;9.07;;
20739;SDS011;10530;49.968;19.844;2022-11-13T09:53:51;16.23;;;6.57;;
20739;SDS011;10530;49.968;19.844;2022-11-13T09:59:19;17.05;;;6.72;;
20739;SDS011;10530;49.968;19.844;2022-11-13T10:05:14;22.98;;;7.85;;
20739;SDS011;10530;49.968;19.844;2022-11-13T10:16:16;28.67;;;9.38;;
20739;SDS011;10530;49.968;19.844;2022-11-13T10:22:34;20.93;;;7.63;;
20739;SDS011;10530;49.968;19.844;2022-11-13T10:27:56;23.85;;;7.78;;
20739;SDS011;10530;49.968;19.844;2022-11-13T10:33:40;31.15;;;11.05;;
20739;SDS011;10530;49.968;19.844;2022-11-13T10:39:05;37.87;;;13.17;;
20739;SDS011;10530;49.968;19.844;2022-11-13T10:44:31;29.95;;;10.73;;
20739;SDS011;10530;49.968;19.844;2022-11-13T10:49:54;38.03;;;13.47;;
20739;SDS011;10530;49.968;19.844;2022-11-13T10:55:36;31.40;;;9.98;;
20739;SDS011;10530;49.968;19.844;2022-11-13T11:00:58;22.67;;;8.30;;
20739;SDS011;10530;49.968;19.844;2022-11-13T11:06:29;28.93;;;10.57;;
20739;SDS011;10530;49.968;19.844;2022-11-13T11:12:20;13.95;;;5.15;;
20739;SDS011;10530;49.968;19.844;2022-11-13T11:34:46;32.00;;;10.30;;
20739;SDS011;10530;49.968;19.844;2022-11-13T11:40:24;33.47;;;9.80;;
20739;SDS011;10530;49.968;19.844;2022-11-13T11:45:55;30.90;;;11.00;;
20739;SDS011;10530;49.968;19.844;2022-11-13T11:51:28;29.52;;;10.73;;
20739;SDS011;10530;49.968;19.844;2022-11-13T11:57:14;30.05;;;11.43;;
20739;SDS011;10530;49.968;19.844;2022-11-13T12:14:59;28.80;;;10.67;;
20739;SDS011;10530;49.968;19.844;2022-11-13T12:31:47;39.40;;;12.13;;
20739;SDS011;10530;49.968;19.844;2022-11-13T12:37:41;42.03;;;15.20;;
20739;SDS011;10530;49.968;19.844;2022-11-13T12:48:52;30.52;;;11.20;;
20739;SDS011;10530;49.968;19.844;2022-11-13T12:54:23;32.75;;;10.43;;
20739;SDS011;10530;49.968;19.844;2022-11-13T12:59:53;31.67;;;11.60;;
20739;SDS011;10530;49.968;19.844;2022-11-13T13:05:19;30.77;;;10.55;;
20739;SDS011;10530;49.968;19.844;2022-11-13T13:16:31;39.58;;;11.85;;
20739;SDS011;10530;49.968;19.844;2022-11-13T13:21:52;49.80;;;14.07;;
20739;SDS011;10530;49.968;19.844;2022-11-13T13:27:54;41.90;;;12.83;;
20739;SDS011;10530;49.968;19.844;2022-11-13T13:38:41;26.80;;;9.50;;
20739;SDS011;10530;49.968;19.844;2022-11-13T13:49:55;35.22;;;11.50;;
20739;SDS011;10530;49.968;19.844;2022-11-13T13:55:18;34.50;;;11.23;;
20739;SDS011;10530;49.968;19.844;2022-11-13T14:00:59;43.08;;;13.45;;
20739;SDS011;10530;49.968;19.844;2022-11-13T14:06:48;36.53;;;12.10;;
20739;SDS011;10530;49.968;19.844;2022-11-13T14:12:18;41.75;;;13.35;;
20739;SDS011;10530;49.968;19.844;2022-11-13T14:17:41;35.70;;;12.73;;
20739;SDS011;10530;49.968;19.844;2022-11-13T14:23:03;46.10;;;14.60;;
20739;SDS011;10530;49.968;19.844;2022-11-13T14:28:26;30.83;;;10.82;;
20739;SDS011;10530;49.968;19.844;2022-11-13T14:33:49;32.27;;;12.27;;
20739;SDS011;10530;49.968;19.844;2022-11-13T14:45:05;38.97;;;12.23;;
20739;SDS011;10530;49.968;19.844;2022-11-13T14:50:36;44.90;;;13.37;;
20739;SDS011;10530;49.968;19.844;2022-11-13T14:56:10;38.80;;;12.73;;
20739;SDS011;10530;49.968;19.844;2022-11-13T15:01:31;45.83;;;17.30;;
20739;SDS011;10530;49.968;19.844;2022-11-13T15:06:55;39.55;;;12.77;;
20739;SDS011;10530;49.968;19.844;2022-11-13T15:12:20;33.72;;;11.05;;
20739;SDS011;10530;49.968;19.844;2022-11-13T15:17:42;46.37;;;17.00;;
20739;SDS011;10530;49.968;19.844;2022-11-13T15:23:07;52.08;;;17.95;;
20739;SDS011;10530;49.968;19.844;2022-11-13T15:28:31;41.20;;;13.77;;
20739;SDS011;10530;49.968;19.844;2022-11-13T15:33:53;36.90;;;12.82;;
20739;SDS011;10530;49.968;19.844;2022-11-13T15:39:14;39.97;;;12.48;;
20739;SDS011;10530;49.968;19.844;2022-11-13T15:44:43;34.60;;;13.37;;
20739;SDS011;10530;49.968;19.844;2022-11-13T15:50:05;52.10;;;15.68;;
20739;SDS011;10530;49.968;19.844;2022-11-13T15:55:36;33.23;;;12.30;;
20739;SDS011;10530;49.968;19.844;2022-11-13T16:00:59;36.10;;;12.65;;
20739;SDS011;10530;49.968;19.844;2022-11-13T16:06:21;42.78;;;14.23;;
20739;SDS011;10530;49.968;19.844;2022-11-13T16:11:43;28.00;;;10.83;;
20739;SDS011;10530;49.968;19.844;2022-11-13T16:17:13;36.80;;;12.32;;
20739;SDS011;10530;49.968;19.844;2022-11-13T16:22:39;26.73;;;9.77;;
20739;SDS011;10530;49.968;19.844;2022-11-13T16:28:01;29.08;;;9.75;;
20739;SDS011;10530;49.968;19.844;2022-11-13T16:33:23;25.13;;;9.68;;
20739;SDS011;10530;49.968;19.844;2022-11-13T16:38:44;42.97;;;12.47;;
20739;SDS011;10530;49.968;19.844;2022-11-13T16:44:05;44.38;;;13.95;;
20739;SDS011;10530;49.968;19.844;2022-11-13T16:49:26;33.70;;;12.87;;
20739;SDS011;10530;49.968;19.844;2022-11-13T16:54:47;29.77;;;10.63;;
20739;SDS011;10530;49.968;19.844;2022-11-13T17:00:12;45.17;;;13.90;;
20739;SDS011;10530;49.968;19.844;2022-11-13T17:05:35;46.60;;;15.40;;
20739;SDS011;10530;49.968;19.844;2022-11-13T17:10:57;47.78;;;15.30;;
20739;SDS011;10530;49.968;19.844;2022-11-13T17:16:19;51.90;;;15.23;;
20739;SDS011;10530;49.968;19.844;2022-11-13T17:21:41;34.13;;;10.90;;
20739;SDS011;10530;49.968;19.844;2022-11-13T17:27:04;40.72;;;13.57;;
20739;SDS011;10530;49.968;19.844;2022-11-13T17:32:26;38.17;;;13.63;;
20739;SDS011;10530;49.968;19.844;2022-11-13T17:37:47;44.67;;;15.00;;
20739;SDS011;10530;49.968;19.844;2022-11-13T17:43:09;35.83;;;12.73;;
20739;SDS011;10530;49.968;19.844;2022-11-13T17:48:31;29.23;;;10.95;;
20739;SDS011;10530;49.968;19.844;2022-11-13T17:53:56;47.88;;;14.55;;
20739;SDS011;10530;49.968;19.844;2022-11-13T17:59:18;41.10;;;13.63;;
20739;SDS011;10530;49.968;19.844;2022-11-13T18:04:39;39.35;;;13.05;;
20739;SDS011;10530;49.968;19.844;2022-11-13T18:10:00;47.90;;;15.77;;
20739;SDS011;10530;49.968;19.844;2022-11-13T18:15:22;55.13;;;15.02;;
20739;SDS011;10530;49.968;19.844;2022-11-13T18:20:44;33.47;;;10.45;;
20739;SDS011;10530;49.968;19.844;2022-11-13T18:26:09;44.63;;;13.90;;
20739;SDS011;10530;49.968;19.844;2022-11-13T18:31:35;46.65;;;14.82;;
20739;SDS011;10530;49.968;19.844;2022-11-13T18:36:56;45.93;;;14.90;;
20739;SDS011;10530;49.968;19.844;2022-11-13T18:42:18;46.63;;;14.50;;
20739;SDS011;10530;49.968;19.844;2022-11-13T18:47:40;46.58;;;14.50;;
20739;SDS011;10530;49.968;19.844;2022-11-13T18:53:01;46.93;;;14.43;;
20739;SDS011;10530;49.968;19.844;2022-11-13T18:58:23;47.03;;;13.85;;
20739;SDS011;10530;49.968;19.844;2022-11-13T19:03:44;44.83;;;14.13;;
20739;SDS011;10530;49.968;19.844;2022-11-13T19:09:25;37.50;;;13.25;;
20739;SDS011;10530;49.968;19.844;2022-11-13T19:14:47;40.53;;;13.27;;
20739;SDS011;10530;49.968;19.844;2022-11-13T19:20:08;53.13;;;16.37;;
20739;SDS011;10530;49.968;19.844;2022-11-13T19:25:30;48.03;;;15.43;;
20739;SDS011;10530;49.968;19.844;2022-11-13T19:30:51;46.97;;;13.80;;
20739;SDS011;10530;49.968;19.844;2022-11-13T19:36:16;41.55;;;12.82;;
20739;SDS011;10530;49.968;19.844;2022-11-13T19:41:38;48.70;;;14.68;;
20739;SDS011;10530;49.968;19.844;2022-11-13T19:46:59;48.60;;;15.10;;
20739;SDS011;10530;49.968;19.844;2022-11-13T19:52:21;27.42;;;10.90;;
20739;SDS011;10530;49.968;19.844;2022-11-13T19:57:42;35.70;;;12.27;;
20739;SDS011;10530;49.968;19.844;2022-11-13T20:03:05;41.95;;;11.82;;
20739;SDS011;10530;49.968;19.844;2022-11-13T20:08:27;44.53;;;13.50;;
20739;SDS011;10530;49.968;19.844;2022-11-13T20:13:48;36.90;;;11.67;;
20739;SDS011;10530;49.968;19.844;2022-11-13T20:19:10;52.85;;;15.25;;
20739;SDS011;10530;49.968;19.844;2022-11-13T20:24:31;36.93;;;10.77;;
20739;SDS011;10530;49.968;19.844;2022-11-13T20:29:52;35.47;;;12.00;;
20739;SDS011;10530;49.968;19.844;2022-11-13T20:35:14;41.75;;;12.63;;
20739;SDS011;10530;49.968;19.844;2022-11-13T20:40:35;34.50;;;11.40;;
20739;SDS011;10530;49.968;19.844;2022-11-13T20:46:03;36.53;;;12.68;;
20739;SDS011;10530;49.968;19.844;2022-11-13T20:51:31;16.27;;;6.80;;
20739;SDS011;10530;49.968;19.844;2022-11-13T20:56:52;35.13;;;10.95;;
20739;SDS011;10530;49.968;19.844;2022-11-13T21:02:14;29.05;;;9.40;;
20739;SDS011;10530;49.968;19.844;2022-11-13T21:07:35;22.70;;;7.67;;
20739;SDS011;10530;49.968;19.844;2022-11-13T21:12:56;27.65;;;8.93;;
20739;SDS011;10530;49.968;19.844;2022-11-13T21:18:18;24.80;;;8.43;;
20739;SDS011;10530;49.968;19.844;2022-11-13T21:23:40;28.13;;;9.77;;
20739;SDS011;10530;49.968;19.844;2022-11-13T21:29:01;28.85;;;9.15;;
20739;SDS011;10530;49.968;19.844;2022-11-13T21:34:23;28.53;;;9.07;;
20739;SDS011;10530;49.968;19.844;2022-11-13T21:39:44;28.65;;;8.98;;
20739;SDS011;10530;49.968;19.844;2022-11-13T21:45:05;27.80;;;9.00;;
20739;SDS011;10530;49.968;19.844;2022-11-13T21:50:27;24.20;;;7.97;;
20739;SDS011;10530;49.968;19.844;2022-11-13T21:55:49;23.23;;;9.00;;
20739;SDS011;10530;49.968;19.844;2022-11-13T22:01:11;29.70;;;9.40;;
20739;SDS011;10530;49.968;19.844;2022-11-13T22:06:34;26.15;;;9.02;;
20739;SDS011;10530;49.968;19.844;2022-11-13T22:11:56;27.13;;;9.13;;
20739;SDS011;10530;49.968;19.844;2022-11-13T22:17:17;14.45;;;5.68;;
20739;SDS011;10530;49.968;19.844;2022-11-13T22:22:38;19.58;;;7.15;;
20739;SDS011;10530;49.968;19.844;2022-11-13T22:28:00;24.80;;;8.57;;
20739;SDS011;10530;49.968;19.844;2022-11-13T22:33:21;24.52;;;8.13;;
20739;SDS011;10530;49.968;19.844;2022-11-13T22:38:45;25.13;;;7.73;;
20739;SDS011;10530;49.968;19.844;2022-11-13T22:44:08;20.00;;;7.15;;
20739;SDS011;10530;49.968;19.844;2022-11-13T22:49:32;24.23;;;8.18;;
20739;SDS011;10530;49.968;19.844;2022-11-13T22:54:53;23.80;;;8.07;;
20739;SDS011;10530;49.968;19.844;2022-11-13T23:00:15;33.15;;;8.27;;
20739;SDS011;10530;49.968;19.844;2022-11-13T23:05:36;23.37;;;8.47;;
20739;SDS011;10530;49.968;19.844;2022-11-13T23:10:57;24.83;;;7.55;;
20739;SDS011;10530;49.968;19.844;2022-11-13T23:16:19;19.02;;;7.90;;
20739;SDS011;10530;49.968;19.844;2022-11-13T23:21:43;15.03;;;6.20;;
20739;SDS011;10530;49.968;19.844;2022-11-13T23:27:05;25.65;;;7.85;;
20739;SDS011;10530;49.968;19.844;2022-11-13T23:32:26;21.93;;;6.60;;
20739;SDS011;10530;49.968;19.844;2022-11-13T23:37:47;22.40;;;7.00;;
20739;SDS011;10530;49.968;19.844;2022-11-13T23:43:08;21.00;;;7.50;;
20739;SDS011;10530;49.968;19.844;2022-11-13T23:48:30;21.57;;;6.80;;
20739;SDS011;10530;49.968;19.844;2022-11-13T23:53:51;25.67;;;7.75;;
20739;SDS011;10530;49.968;19.844;2022-11-13T23:59:12;24.80;;;8.47;;
